This is the latest recevied weather packets stored in our database for station/object KJ5FA-10. If no packets are shown the sender has not sent any weather packets the latest 10 day(s).
| Time | Temp. | Humidity | Pressure | Rain* | Wind** | Luminosity | Snow |
|---|---|---|---|---|---|---|---|
| 1777765177 | 21.67° C | 33% | 1018.5 hPa | 0 mm | - | - | - |
| 1777764278 | 21.67° C | 31% | 1018.8 hPa | 0 mm | - | - | - |
| 1777763378 | 21.67° C | 33% | 1018.9 hPa | 0 mm | - | - | - |
| 1777761578 | 22.78° C | 32% | 1018.5 hPa | 0 mm | - | - | - |
| 1777760677 | 22.22° C | 33% | 1018.7 hPa | 0 mm | - | - | - |
| 1777759778 | 22.78° C | 33% | 1018.5 hPa | 0 mm | - | - | - |
| 1777757078 | 23.33° C | 35% | 1018.6 hPa | 0 mm | - | - | - |
| 1777755278 | 22.78° C | 33% | 1018.8 hPa | 0 mm | - | - | - |
| 1777752578 | 21.67° C | 35% | 1019.8 hPa | 0 mm | - | - | - |
| 1777751677 | 22.78° C | 32% | 1019.7 hPa | 0 mm | - | - | - |
| 1777750778 | 22.22° C | 34% | 1019.9 hPa | 0 mm | - | - | - |
| 1777749877 | 21.67° C | 34% | 1019.9 hPa | 0 mm | - | - | - |
| 1777745377 | 21.11° C | 36% | 1020.7 hPa | 0 mm | - | - | - |
| 1777740877 | 20.56° C | 34% | 1021.4 hPa | 0 mm | - | - | - |
| 1777738177 | 19.44° C | 39% | 1021.4 hPa | 0 mm | - | - | - |
| 1777736377 | 17.78° C | 44% | 1021.9 hPa | 0 mm | - | - | - |
| 1777735478 | 17.78° C | 49% | 1021.7 hPa | 0 mm | - | - | - |
| 1777734577 | 16.67° C | 59% | 1021.5 hPa | 0 mm | - | - | - |
| 1777733677 | 16.11° C | 64% | 1021.8 hPa | 0 mm | - | - | - |
| 1777732778 | 15° C | 66% | 1021.6 hPa | 0 mm | - | - | - |
| 1777730077 | 13.89° C | 76% | 1021.7 hPa | 0 mm | - | - | - |
| 1777728276 | 11.67° C | 87% | 1021.6 hPa | 0 mm | - | - | - |
| 1777727377 | 10.56° C | 97% | 1021.5 hPa | 0 mm | - | - | - |
| 1777726478 | 10° C | 97% | 1021.5 hPa | 0 mm | - | - | - |
| 1777725576 | 9.44° C | 96% | 1021.2 hPa | 0 mm | - | - | - |
* Rain latest hour (hover to see other rain measurements)
** Current wind speed in m/s (hover to see current wind gust speed)